createdAt,value
2023-05-14T00:00:08.311Z,1.00
2023-05-14T00:01:09.934Z,1.00
2023-05-14T00:02:11.584Z,1.00
2023-05-14T00:03:13.383Z,1.00
2023-05-14T00:04:15.084Z,1.00
2023-05-14T00:05:16.705Z,1.00
2023-05-14T00:06:18.342Z,1.00
2023-05-14T00:07:20.095Z,1.00
2023-05-14T00:08:21.750Z,1.00
2023-05-14T00:09:23.412Z,1.00
2023-05-14T00:10:26.271Z,1.00
2023-05-14T00:11:27.896Z,1.00
2023-05-14T00:12:30.135Z,1.00
2023-05-14T00:13:31.764Z,1.00
2023-05-14T00:14:33.365Z,1.00
2023-05-14T00:15:34.990Z,1.00
2023-05-14T00:16:36.718Z,1.00
2023-05-14T00:17:38.879Z,1.00
2023-05-14T00:18:40.502Z,99.90
2023-05-14T00:19:42.792Z,99.90
2023-05-14T00:20:44.407Z,99.90
2023-05-14T00:21:46.951Z,99.90
2023-05-14T00:22:48.562Z,99.90
2023-05-14T00:23:50.137Z,1.00
2023-05-14T00:24:51.727Z,1.00
2023-05-14T00:25:53.299Z,1.00
2023-05-14T00:26:54.913Z,1.00
2023-05-14T00:27:56.485Z,1.00
2023-05-14T00:28:58.041Z,1.00
2023-05-14T00:29:59.631Z,1.00
2023-05-14T00:31:01.247Z,99.90
2023-05-14T00:32:03.541Z,1.00
2023-05-14T00:33:05.712Z,1.00
2023-05-14T00:34:07.283Z,99.90
2023-05-14T00:35:09.216Z,1.00
2023-05-14T00:36:10.799Z,99.90
2023-05-14T00:37:12.379Z,99.90
2023-05-14T00:38:17.084Z,99.90
2023-05-14T00:39:18.643Z,99.90
2023-05-14T00:40:20.423Z,99.90
2023-05-14T00:41:23.052Z,99.90
2023-05-14T00:42:24.638Z,99.90
2023-05-14T00:43:26.272Z,99.90
2023-05-14T00:44:27.831Z,99.90
2023-05-14T00:53:39.172Z,1.00
2023-05-14T00:54:40.962Z,1.00
2023-05-14T00:55:42.828Z,79.80
2023-05-14T00:56:48.040Z,1.00
2023-05-14T00:58:52.675Z,99.90
2023-05-14T00:59:54.349Z,1.00
2023-05-14T01:00:56.269Z,99.90
2023-05-14T01:01:58.009Z,99.90
2023-05-14T01:03:01.722Z,1.00
2023-05-14T01:04:04.055Z,1.00
2023-05-14T01:05:06.542Z,99.90
2023-05-14T01:06:18.368Z,99.90
2023-05-14T01:07:31.581Z,1.00
2023-05-14T01:08:59.542Z,1.00
2023-05-14T01:10:21.573Z,1.00
2023-05-14T01:11:29.952Z,1.00
2023-05-14T01:12:50.752Z,1.00
2023-05-14T01:14:03.533Z,1.00
2023-05-14T01:15:28.421Z,1.00
2023-05-14T01:16:33.293Z,1.00
2023-05-14T01:17:41.331Z,99.90
2023-05-14T01:18:46.052Z,99.90
2023-05-14T01:19:48.381Z,99.90
2023-05-14T01:20:52.183Z,99.90
2023-05-14T01:21:53.749Z,1.00
2023-05-14T01:22:55.434Z,99.90
2023-05-14T01:23:57.012Z,99.90
2023-05-14T01:24:58.621Z,1.00
2023-05-14T01:26:00.259Z,1.00
2023-05-14T01:27:18.129Z,1.00
2023-05-14T01:28:27.100Z,1.00
2023-05-14T01:29:31.136Z,99.90
2023-05-14T01:30:38.031Z,99.90
2023-05-14T01:31:42.993Z,99.90
2023-05-14T01:32:48.086Z,99.90
2023-05-14T01:33:49.858Z,15.50
2023-05-14T01:34:52.981Z,1.00
2023-05-14T01:35:55.688Z,1.00
2023-05-14T01:36:58.126Z,1.00
2023-05-14T01:38:06.623Z,1.00
2023-05-14T01:39:09.677Z,99.90
2023-05-14T01:40:11.773Z,1.00
2023-05-14T01:41:14.330Z,99.90
2023-05-14T01:42:16.149Z,1.00
2023-05-14T01:43:18.931Z,1.00
2023-05-14T01:44:21.775Z,1.00
2023-05-14T01:45:24.073Z,1.00
2023-05-14T01:46:25.660Z,1.00
2023-05-14T01:47:27.434Z,1.00
2023-05-14T01:48:29.959Z,1.00
2023-05-14T01:49:32.501Z,1.00
2023-05-14T01:50:34.167Z,1.00
2023-05-14T01:51:35.869Z,1.00
2023-05-14T01:52:37.496Z,1.00
2023-05-14T01:53:39.056Z,1.00
2023-05-14T01:54:40.750Z,1.00
2023-05-14T01:55:42.331Z,1.00
2023-05-14T01:56:43.893Z,1.00
2023-05-14T01:57:45.596Z,1.00
2023-05-14T01:58:47.388Z,1.00
2023-05-14T01:59:48.923Z,1.00
2023-05-14T02:00:50.526Z,1.00
2023-05-14T02:01:52.160Z,1.00
2023-05-14T02:02:54.380Z,1.00
2023-05-14T02:03:57.038Z,1.00
2023-05-14T02:04:58.663Z,1.00
2023-05-14T02:06:00.276Z,1.00
2023-05-14T02:07:01.845Z,1.00
2023-05-14T02:08:03.526Z,1.00
2023-05-14T02:09:05.137Z,1.00
2023-05-14T02:10:07.528Z,1.00
2023-05-14T02:11:09.119Z,1.00
2023-05-14T02:12:11.588Z,1.00
2023-05-14T02:13:13.319Z,1.00
2023-05-14T02:14:15.608Z,1.00
2023-05-14T02:15:17.268Z,1.00
2023-05-14T02:16:19.194Z,1.00
2023-05-14T02:17:20.864Z,1.00
2023-05-14T02:18:22.519Z,1.00
2023-05-14T02:19:24.280Z,1.00
2023-05-14T02:20:25.989Z,1.00
2023-05-14T02:21:27.661Z,56.10
2023-05-14T02:22:29.249Z,47.10
2023-05-14T02:23:40.503Z,27.20
2023-05-14T02:24:42.916Z,1.00
2023-05-14T02:25:44.831Z,1.00
2023-05-14T02:26:46.795Z,4.30
2023-05-14T02:27:49.331Z,1.00
2023-05-14T02:28:50.952Z,1.00
2023-05-14T02:29:52.820Z,1.00
2023-05-14T02:30:59.843Z,1.00
2023-05-14T02:32:01.502Z,41.70
2023-05-14T02:33:03.255Z,99.90
2023-05-14T02:34:06.630Z,26.10
2023-05-14T02:35:08.850Z,98.20
2023-05-14T02:36:10.490Z,99.90
2023-05-14T02:37:12.079Z,99.90
2023-05-14T02:38:13.662Z,99.90
2023-05-14T02:39:15.277Z,99.90
2023-05-14T02:40:16.911Z,99.90
2023-05-14T02:41:18.529Z,99.90
2023-05-14T02:42:20.172Z,99.90
2023-05-14T02:43:21.725Z,99.90
2023-05-14T02:44:23.346Z,99.90
2023-05-14T02:45:25.170Z,99.90
2023-05-14T02:46:26.888Z,99.90
2023-05-14T02:47:28.631Z,99.90
2023-05-14T02:48:30.198Z,99.90
2023-05-14T02:49:31.832Z,90.10
2023-05-14T02:50:33.381Z,86.20
2023-05-14T02:51:34.952Z,65.80
2023-05-14T02:52:36.587Z,99.90
2023-05-14T02:53:38.237Z,99.90
2023-05-14T02:54:39.836Z,99.90
2023-05-14T02:55:41.457Z,98.40
2023-05-14T02:56:43.090Z,78.90
2023-05-14T02:57:44.732Z,15.90
2023-05-14T02:58:46.349Z,27.80
2023-05-14T02:59:47.927Z,60.90
2023-05-14T03:00:49.853Z,27.80
2023-05-14T03:01:52.132Z,1.00
2023-05-14T03:02:54.328Z,1.00
2023-05-14T03:03:56.681Z,35.30
2023-05-14T03:04:58.264Z,1.00
2023-05-14T03:05:59.826Z,1.00
2023-05-14T03:07:01.377Z,1.00
2023-05-14T03:08:02.958Z,1.00
2023-05-14T03:09:04.561Z,1.00
2023-05-14T03:10:06.655Z,1.00
2023-05-14T03:11:08.266Z,1.00
2023-05-14T03:12:09.877Z,1.00
2023-05-14T03:13:11.514Z,1.00
2023-05-14T03:14:13.084Z,1.00
2023-05-14T03:15:14.782Z,1.00
2023-05-14T03:16:16.424Z,1.00
2023-05-14T03:17:18.034Z,1.00
2023-05-14T03:18:19.681Z,1.00
2023-05-14T03:19:21.262Z,1.00
2023-05-14T03:20:24.875Z,1.00
2023-05-14T03:21:27.202Z,1.00
2023-05-14T03:22:28.891Z,1.00
2023-05-14T03:23:31.954Z,1.00
2023-05-14T03:24:35.014Z,1.00
2023-05-14T03:25:36.990Z,1.00
2023-05-14T03:26:38.587Z,1.00
2023-05-14T03:27:40.257Z,1.00
2023-05-14T03:28:41.819Z,1.00
2023-05-14T03:29:43.351Z,1.00
2023-05-14T03:30:45.000Z,1.00
2023-05-14T03:31:46.693Z,1.00
2023-05-14T03:32:48.352Z,1.00
2023-05-14T03:33:49.983Z,1.00
2023-05-14T03:34:51.627Z,1.00
2023-05-14T03:35:53.238Z,1.00
2023-05-14T03:36:54.803Z,1.00
2023-05-14T03:37:59.087Z,1.00
2023-05-14T03:39:00.680Z,1.00
2023-05-14T03:40:02.334Z,1.00
2023-05-14T03:41:04.049Z,1.00
2023-05-14T03:42:05.745Z,21.90
2023-05-14T03:43:07.307Z,72.30
2023-05-14T03:44:08.904Z,1.40
2023-05-14T03:45:10.860Z,1.00
2023-05-14T03:46:12.551Z,1.00
2023-05-14T03:47:14.109Z,5.00
2023-05-14T03:48:15.770Z,1.00
2023-05-14T03:49:17.453Z,17.40
2023-05-14T03:50:19.069Z,16.50
2023-05-14T03:51:20.708Z,28.80
2023-05-14T03:52:22.303Z,1.00
2023-05-14T03:53:23.883Z,1.00
2023-05-14T03:54:26.335Z,2.80
2023-05-14T03:55:28.085Z,15.70
2023-05-14T03:56:29.678Z,1.00
2023-05-14T03:57:31.267Z,15.20
2023-05-14T03:58:33.060Z,9.20
2023-05-14T03:59:34.650Z,38.80
2023-05-14T04:00:36.467Z,1.00
2023-05-14T04:01:38.200Z,1.00
2023-05-14T04:02:39.902Z,1.00
2023-05-14T04:03:41.756Z,1.00
2023-05-14T04:04:43.645Z,1.00
2023-05-14T04:05:46.128Z,1.00
2023-05-14T04:06:47.704Z,1.00
2023-05-14T04:07:49.359Z,1.00
2023-05-14T04:08:50.946Z,1.00
2023-05-14T04:09:52.565Z,1.00
2023-05-14T04:10:54.188Z,99.90
2023-05-14T04:11:55.926Z,99.90
2023-05-14T04:12:57.550Z,14.10
2023-05-14T04:13:59.102Z,1.00
2023-05-14T04:15:01.104Z,99.90
2023-05-14T04:16:02.833Z,99.90
2023-05-14T04:17:04.541Z,1.00
2023-05-14T04:18:06.177Z,1.00
2023-05-14T04:19:08.005Z,99.90
2023-05-14T04:20:10.114Z,1.00
2023-05-14T04:21:12.364Z,99.90
2023-05-14T04:22:13.961Z,1.00
2023-05-14T04:23:15.556Z,1.00
2023-05-14T04:24:17.321Z,1.00
2023-05-14T04:25:19.030Z,1.00
2023-05-14T04:26:21.438Z,1.00
2023-05-14T04:27:23.391Z,1.00
2023-05-14T04:28:25.045Z,1.00
2023-05-14T04:29:26.650Z,1.00
2023-05-14T04:30:28.230Z,6.00
2023-05-14T04:31:31.578Z,68.50
2023-05-14T04:32:33.558Z,99.90
2023-05-14T04:33:35.189Z,99.90
2023-05-14T04:34:36.802Z,99.90
2023-05-14T04:35:38.366Z,99.90
2023-05-14T04:36:40.197Z,99.90
2023-05-14T04:37:41.831Z,99.90
2023-05-14T04:38:43.381Z,71.20
2023-05-14T04:39:45.013Z,80.30
2023-05-14T04:40:46.578Z,99.90
2023-05-14T04:41:48.124Z,99.90
2023-05-14T04:42:50.135Z,99.90
2023-05-14T04:43:55.341Z,99.90
2023-05-14T04:44:56.916Z,99.90
2023-05-14T04:45:58.522Z,99.90
2023-05-14T04:47:00.430Z,99.90
2023-05-14T04:48:07.659Z,99.90
2023-05-14T04:49:09.309Z,99.90
2023-05-14T04:50:10.970Z,99.90
2023-05-14T04:51:12.833Z,90.40
2023-05-14T04:52:14.400Z,82.70
2023-05-14T04:53:16.000Z,99.90
2023-05-14T04:54:17.575Z,99.90
2023-05-14T04:55:19.353Z,99.90
2023-05-14T04:56:21.396Z,99.90
2023-05-14T04:57:23.050Z,53.70
2023-05-14T04:58:24.675Z,99.90
2023-05-14T04:59:26.279Z,99.90
2023-05-14T05:00:28.622Z,99.90
2023-05-14T05:01:30.470Z,99.90
2023-05-14T05:02:32.130Z,96.70
2023-05-14T05:03:33.883Z,97.70
2023-05-14T05:04:35.489Z,99.90
2023-05-14T05:05:37.108Z,99.90
2023-05-14T05:06:38.782Z,99.90
2023-05-14T05:07:40.417Z,99.90
2023-05-14T05:08:42.271Z,99.90
2023-05-14T05:09:44.195Z,99.90
2023-05-14T05:10:45.990Z,99.90
2023-05-14T05:11:47.571Z,52.80
2023-05-14T05:12:49.135Z,40.90
2023-05-14T05:13:50.815Z,81.80
2023-05-14T05:14:52.386Z,99.90
2023-05-14T05:15:54.143Z,99.90
2023-05-14T05:16:55.983Z,21.10
2023-05-14T05:17:57.641Z,1.00
2023-05-14T05:18:59.350Z,1.00
2023-05-14T05:20:01.075Z,1.00
2023-05-14T05:21:02.775Z,1.00
2023-05-14T05:22:04.575Z,1.00
2023-05-14T05:23:06.114Z,1.00
2023-05-14T05:24:08.609Z,1.00
2023-05-14T05:25:12.778Z,1.00
2023-05-14T05:26:14.415Z,1.00
2023-05-14T05:27:15.988Z,1.00
2023-05-14T05:28:17.691Z,1.00
2023-05-14T05:29:19.292Z,1.00
2023-05-14T05:30:21.093Z,1.00
2023-05-14T05:31:22.949Z,23.80
2023-05-14T05:32:25.107Z,6.60
2023-05-14T05:33:26.738Z,1.00
2023-05-14T05:34:28.368Z,1.00
2023-05-14T05:35:29.931Z,1.00
2023-05-14T05:36:31.937Z,1.00
2023-05-14T05:37:33.566Z,1.00
2023-05-14T05:38:35.232Z,1.00
2023-05-14T05:39:36.837Z,1.00
2023-05-14T05:40:38.590Z,1.00
2023-05-14T05:41:40.730Z,1.00
2023-05-14T05:42:42.711Z,1.00
2023-05-14T05:43:44.348Z,1.00
2023-05-14T05:44:45.960Z,1.00
2023-05-14T05:45:47.518Z,1.00
2023-05-14T05:46:49.235Z,1.00
2023-05-14T05:47:51.026Z,1.00
2023-05-14T05:48:53.283Z,99.90
2023-05-14T05:49:54.903Z,1.00
2023-05-14T05:50:56.531Z,99.90
2023-05-14T05:51:58.108Z,1.00
2023-05-14T05:52:59.706Z,1.00
2023-05-14T05:54:01.265Z,99.90
2023-05-14T05:55:03.311Z,1.00
2023-05-14T05:56:06.310Z,1.00
2023-05-14T05:57:07.992Z,1.00
2023-05-14T05:58:09.583Z,99.90
2023-05-14T05:59:11.152Z,99.90
2023-05-14T06:00:13.323Z,99.90
2023-05-14T06:01:15.015Z,1.00
2023-05-14T06:02:16.620Z,1.00
2023-05-14T06:03:18.378Z,1.00
2023-05-14T06:04:20.231Z,1.00
2023-05-14T06:05:21.971Z,1.00
2023-05-14T06:06:23.593Z,1.00
2023-05-14T06:07:25.147Z,99.90
2023-05-14T06:08:26.724Z,1.00
2023-05-14T06:09:28.281Z,1.00
2023-05-14T06:10:30.039Z,1.00
2023-05-14T06:11:31.662Z,5.80
2023-05-14T06:12:33.263Z,1.00
2023-05-14T06:13:34.866Z,99.90
2023-05-14T06:14:36.563Z,1.00
2023-05-14T06:15:38.163Z,1.00
2023-05-14T06:16:39.827Z,1.00
2023-05-14T06:17:41.496Z,99.90
2023-05-14T06:18:43.297Z,14.10
2023-05-14T06:19:44.928Z,1.00
2023-05-14T06:20:46.541Z,1.00
2023-05-14T06:21:48.092Z,1.00
2023-05-14T06:22:49.652Z,99.90
2023-05-14T06:23:51.308Z,83.80
2023-05-14T06:24:52.893Z,1.00
2023-05-14T06:25:54.486Z,1.00
2023-05-14T06:26:56.164Z,1.00
2023-05-14T06:27:57.735Z,1.00
2023-05-14T06:28:59.287Z,99.90
2023-05-14T06:30:01.303Z,31.50
2023-05-14T06:31:02.939Z,99.90
2023-05-14T06:32:05.189Z,99.90
2023-05-14T06:33:06.869Z,99.90
2023-05-14T06:34:09.111Z,99.90
2023-05-14T06:35:10.746Z,89.80
2023-05-14T06:36:12.327Z,1.00
2023-05-14T06:37:13.912Z,1.00
2023-05-14T06:38:15.549Z,1.00
2023-05-14T06:39:17.168Z,1.00
2023-05-14T06:40:19.064Z,1.00
2023-05-14T06:41:21.336Z,99.90
2023-05-14T06:42:22.917Z,99.90
2023-05-14T06:43:24.554Z,99.90
2023-05-14T06:44:26.154Z,99.90
2023-05-14T06:45:27.782Z,1.00
2023-05-14T06:46:29.361Z,1.00
2023-05-14T06:47:30.964Z,1.00
2023-05-14T06:48:32.716Z,1.00
2023-05-14T06:49:35.058Z,99.90
2023-05-14T06:50:36.625Z,26.80
2023-05-14T06:51:39.014Z,42.50
2023-05-14T06:52:40.758Z,1.00
2023-05-14T06:53:42.332Z,8.50
2023-05-14T06:54:43.879Z,4.10
2023-05-14T06:55:47.944Z,1.00
2023-05-14T06:56:49.562Z,99.90
2023-05-14T06:57:51.196Z,1.00
2023-05-14T06:58:52.764Z,99.90
2023-05-14T06:59:54.301Z,99.90
2023-05-14T07:00:55.936Z,99.90
2023-05-14T07:01:57.657Z,1.00
2023-05-14T07:02:59.291Z,99.90
2023-05-14T07:04:00.882Z,1.00
2023-05-14T07:05:03.012Z,99.90
2023-05-14T07:06:04.765Z,1.00
2023-05-14T07:07:06.385Z,39.80
2023-05-14T07:08:07.925Z,16.50
2023-05-14T07:09:10.595Z,1.00
2023-05-14T07:10:12.528Z,1.00
2023-05-14T07:11:14.574Z,1.00
2023-05-14T07:12:16.195Z,1.00
2023-05-14T07:13:17.776Z,1.00
2023-05-14T07:14:19.322Z,1.00
2023-05-14T07:15:21.184Z,1.00
2023-05-14T07:16:22.809Z,99.90
2023-05-14T07:17:24.639Z,99.90
2023-05-14T07:18:26.388Z,99.90
2023-05-14T07:19:29.577Z,99.90
2023-05-14T07:20:31.163Z,1.00
2023-05-14T07:21:32.810Z,1.00
2023-05-14T07:22:34.445Z,99.90
2023-05-14T07:23:38.727Z,1.00
2023-05-14T07:24:40.491Z,1.00
2023-05-14T07:25:42.056Z,99.90
2023-05-14T07:26:43.943Z,99.90
2023-05-14T07:27:45.691Z,99.90
2023-05-14T07:28:47.266Z,99.90
2023-05-14T07:29:50.343Z,22.00
2023-05-14T07:30:51.953Z,1.00
2023-05-14T07:31:53.659Z,1.00
2023-05-14T07:32:55.371Z,1.00
2023-05-14T07:33:57.004Z,1.00
2023-05-14T07:34:59.446Z,1.00
2023-05-14T07:36:01.083Z,1.00
2023-05-14T07:37:02.917Z,99.90
2023-05-14T07:38:05.787Z,99.90
2023-05-14T07:39:07.409Z,99.90
2023-05-14T07:40:09.481Z,99.90
2023-05-14T07:41:12.157Z,99.90
2023-05-14T07:42:21.811Z,1.00
2023-05-14T07:43:29.846Z,1.00
2023-05-14T07:44:31.443Z,99.90
2023-05-14T07:45:33.209Z,99.90
2023-05-14T07:46:34.819Z,99.90
2023-05-14T07:47:36.590Z,99.90
2023-05-14T07:48:38.387Z,99.90
2023-05-14T07:49:40.431Z,99.90
2023-05-14T07:50:41.999Z,99.90
2023-05-14T07:51:43.548Z,1.00
2023-05-14T07:52:45.722Z,1.00
2023-05-14T07:53:47.321Z,1.00
2023-05-14T07:54:50.769Z,1.00
2023-05-14T07:55:52.725Z,1.00
2023-05-14T07:56:54.320Z,1.00
2023-05-14T07:57:56.051Z,1.00
2023-05-14T07:58:57.741Z,1.00
2023-05-14T07:59:59.365Z,99.90
2023-05-14T08:01:01.397Z,1.00
2023-05-14T08:02:03.043Z,1.00
2023-05-14T08:03:05.156Z,99.90
2023-05-14T08:04:06.917Z,1.00
2023-05-14T08:05:09.716Z,65.40
2023-05-14T08:06:11.597Z,1.00
2023-05-14T08:07:13.541Z,1.00
2023-05-14T08:08:15.158Z,1.00
2023-05-14T08:09:16.799Z,1.00
2023-05-14T08:10:18.556Z,1.00
2023-05-14T08:11:21.401Z,1.00
2023-05-14T08:12:23.118Z,1.00
2023-05-14T08:13:24.729Z,1.00
2023-05-14T08:14:26.602Z,1.00
2023-05-14T08:15:28.181Z,1.00
2023-05-14T08:16:29.756Z,1.00
2023-05-14T08:17:31.364Z,1.00
2023-05-14T08:18:33.027Z,1.00
2023-05-14T08:19:34.926Z,1.00
2023-05-14T08:20:36.787Z,1.00
2023-05-14T08:21:38.350Z,1.00
2023-05-14T08:22:39.975Z,1.00
2023-05-14T08:23:41.609Z,1.00
2023-05-14T08:24:43.239Z,1.00
2023-05-14T08:25:44.938Z,1.00
2023-05-14T08:26:46.571Z,1.00
2023-05-14T08:27:48.158Z,1.00
2023-05-14T08:28:49.770Z,1.00
2023-05-14T08:29:51.436Z,1.00
2023-05-14T08:30:53.053Z,1.00
2023-05-14T08:31:54.681Z,1.00
2023-05-14T08:32:56.434Z,1.00
2023-05-14T08:33:58.030Z,1.00
2023-05-14T08:34:59.628Z,1.00
2023-05-14T08:36:01.589Z,1.00
2023-05-14T08:37:03.308Z,1.00
2023-05-14T08:38:04.965Z,1.00
2023-05-14T08:39:09.484Z,1.00
2023-05-14T08:40:12.376Z,99.90
2023-05-14T08:41:15.944Z,99.90
2023-05-14T08:42:20.932Z,99.90
2023-05-14T08:43:26.179Z,99.90
2023-05-14T08:44:45.602Z,99.90
2023-05-14T08:45:49.696Z,99.90
2023-05-14T08:46:53.505Z,99.90
2023-05-14T08:47:56.050Z,99.90
2023-05-14T08:49:05.423Z,99.90
2023-05-14T08:50:08.255Z,99.90
2023-05-14T08:51:10.006Z,99.90
2023-05-14T08:52:12.359Z,99.90
2023-05-14T08:53:14.330Z,99.90
2023-05-14T08:54:17.687Z,99.90
2023-05-14T08:55:20.324Z,99.90
2023-05-14T08:56:22.682Z,99.90
2023-05-14T08:57:26.578Z,99.90
2023-05-14T08:58:28.755Z,99.90
2023-05-14T08:59:30.670Z,99.90
2023-05-14T09:00:32.235Z,99.90
2023-05-14T09:01:34.050Z,99.90
2023-05-14T09:02:36.881Z,99.90
2023-05-14T09:03:39.488Z,99.90
2023-05-14T09:04:42.271Z,99.90
2023-05-14T09:05:44.053Z,99.90
2023-05-14T09:06:49.523Z,99.90
2023-05-14T09:07:51.424Z,99.90
2023-05-14T09:08:53.775Z,99.90
2023-05-14T09:09:56.196Z,99.90
2023-05-14T09:10:57.748Z,99.90
2023-05-14T09:12:00.913Z,99.90
2023-05-14T09:13:02.489Z,99.90
2023-05-14T09:15:15.394Z,99.90
2023-05-14T09:16:18.443Z,99.90
2023-05-14T09:17:20.471Z,99.90
2023-05-14T09:18:22.315Z,99.90
2023-05-14T09:19:24.134Z,99.90
2023-05-14T09:20:26.435Z,99.90
2023-05-14T09:21:28.686Z,99.90
2023-05-14T09:22:33.504Z,99.90
2023-05-14T09:23:35.096Z,99.90
2023-05-14T09:24:38.629Z,99.90
2023-05-14T09:25:40.337Z,99.90
2023-05-14T09:26:42.211Z,99.90
2023-05-14T09:27:50.094Z,99.90
2023-05-14T09:28:57.631Z,99.90
2023-05-14T09:30:13.845Z,99.90
2023-05-14T09:31:15.713Z,99.90
2023-05-14T09:32:18.008Z,99.90
2023-05-14T09:33:29.398Z,99.90
2023-05-14T09:34:32.461Z,99.90
2023-05-14T09:35:34.054Z,99.90
2023-05-14T09:36:35.638Z,99.90
2023-05-14T09:37:37.270Z,99.90
2023-05-14T09:38:38.820Z,99.90
2023-05-14T09:39:40.412Z,99.90
2023-05-14T09:40:41.950Z,99.90
2023-05-14T09:41:43.489Z,99.90
2023-05-14T09:42:45.517Z,99.90
2023-05-14T09:43:47.348Z,99.90
2023-05-14T09:44:49.031Z,99.90
2023-05-14T09:45:50.684Z,99.90
2023-05-14T09:46:53.261Z,99.90
2023-05-14T09:47:54.946Z,99.90
2023-05-14T09:48:57.064Z,99.90
2023-05-14T09:49:58.608Z,99.90
2023-05-14T09:51:00.791Z,99.90
2023-05-14T09:52:03.689Z,99.90
2023-05-14T09:53:05.308Z,99.90
2023-05-14T09:54:07.954Z,99.90
2023-05-14T09:55:09.851Z,99.90
2023-05-14T09:56:11.494Z,99.90
2023-05-14T09:57:13.058Z,99.90
2023-05-14T09:58:14.773Z,99.90
2023-05-14T09:59:16.428Z,99.90
2023-05-14T10:00:18.671Z,99.90
2023-05-14T10:01:21.312Z,99.90
2023-05-14T10:02:31.172Z,99.90
2023-05-14T10:03:32.858Z,99.90
2023-05-14T10:04:35.281Z,99.90
2023-05-14T10:05:39.156Z,99.90
2023-05-14T10:06:42.357Z,99.90
2023-05-14T10:07:47.931Z,99.90
2023-05-14T10:08:52.164Z,99.90
2023-05-14T10:09:59.765Z,99.90
2023-05-14T10:11:05.726Z,99.90
2023-05-14T10:12:08.328Z,99.90
2023-05-14T10:13:14.712Z,99.90
2023-05-14T10:14:33.531Z,99.90
2023-05-14T10:15:42.928Z,99.90
2023-05-14T10:16:50.722Z,99.90
2023-05-14T10:17:58.564Z,99.90
2023-05-14T10:19:08.796Z,99.90
2023-05-14T10:20:14.229Z,99.90
2023-05-14T10:21:19.658Z,99.90
2023-05-14T10:22:24.278Z,99.90
2023-05-14T10:23:26.336Z,99.90
2023-05-14T10:24:28.356Z,99.90
2023-05-14T10:25:30.154Z,99.90
2023-05-14T10:26:39.634Z,99.90
2023-05-14T10:27:42.277Z,99.90
2023-05-14T10:28:44.193Z,99.90
2023-05-14T10:29:54.913Z,99.90
2023-05-14T10:30:56.611Z,99.90
2023-05-14T10:31:58.229Z,99.90
2023-05-14T10:33:11.563Z,99.90
2023-05-14T10:34:37.715Z,99.90
2023-05-14T10:36:02.947Z,99.90
2023-05-14T10:37:25.501Z,99.90
2023-05-14T10:38:32.823Z,99.90
2023-05-14T10:39:54.209Z,99.90
2023-05-14T10:41:04.472Z,99.90
2023-05-14T10:42:06.830Z,99.90
2023-05-14T10:43:11.193Z,99.90
2023-05-14T10:44:13.477Z,99.90
2023-05-14T10:45:15.863Z,99.90
2023-05-14T10:46:17.478Z,99.90
2023-05-14T10:47:19.924Z,99.90
2023-05-14T10:48:22.009Z,99.90
2023-05-14T10:49:39.784Z,99.90
2023-05-14T10:50:44.221Z,99.90
2023-05-14T10:51:49.352Z,99.90
2023-05-14T10:52:51.510Z,99.90
2023-05-14T10:53:53.090Z,99.90
2023-05-14T10:54:57.013Z,99.90
2023-05-14T10:56:01.442Z,99.90
2023-05-14T10:57:03.222Z,99.90
2023-05-14T10:58:05.961Z,99.90
2023-05-14T10:59:08.023Z,99.90
2023-05-14T11:00:10.899Z,99.90
2023-05-14T11:01:13.767Z,99.90
2023-05-14T11:02:30.740Z,99.90
2023-05-14T11:03:38.447Z,99.90
2023-05-14T11:04:41.605Z,99.90
2023-05-14T11:05:44.026Z,99.90
2023-05-14T11:06:47.374Z,99.90
2023-05-14T11:07:53.377Z,99.90
2023-05-14T11:08:56.688Z,99.90
2023-05-14T11:10:12.622Z,99.90
2023-05-14T11:11:15.145Z,1.00
2023-05-14T11:12:18.483Z,1.00
2023-05-14T11:13:20.889Z,1.00
2023-05-14T11:14:24.407Z,1.00
2023-05-14T11:15:28.741Z,1.00
2023-05-14T11:16:31.821Z,22.50
2023-05-14T11:17:36.714Z,99.90
2023-05-14T11:18:41.057Z,1.00
2023-05-14T11:19:45.050Z,1.00
2023-05-14T11:20:46.997Z,1.00
2023-05-14T11:21:49.017Z,1.00
2023-05-14T11:22:53.620Z,99.90
2023-05-14T11:23:56.831Z,99.90
2023-05-14T11:24:58.628Z,99.90
2023-05-14T11:26:00.650Z,68.20
2023-05-14T11:27:03.424Z,99.90
2023-05-14T11:28:35.794Z,99.90
2023-05-14T11:31:59.276Z,1.00
2023-05-14T11:33:38.378Z,99.90
2023-05-14T11:35:39.644Z,1.00
2023-05-14T11:37:13.698Z,1.00
2023-05-14T11:39:01.576Z,1.00
2023-05-14T11:41:52.274Z,99.90
2023-05-14T11:42:54.005Z,99.90
2023-05-14T11:43:55.577Z,99.90
2023-05-14T11:44:57.213Z,1.00
2023-05-14T11:45:58.825Z,1.00
2023-05-14T11:47:01.970Z,1.00
2023-05-14T11:48:12.153Z,1.00
2023-05-14T11:49:13.683Z,1.00
2023-05-14T11:50:16.557Z,1.00
2023-05-14T11:51:18.291Z,99.90
2023-05-14T11:52:21.868Z,1.00
2023-05-14T11:53:26.870Z,1.00
2023-05-14T11:54:29.363Z,1.00
2023-05-14T11:55:33.656Z,1.00
2023-05-14T11:56:35.388Z,1.00
2023-05-14T11:57:37.275Z,99.90
2023-05-14T11:58:39.027Z,1.00
2023-05-14T11:59:41.172Z,1.00
2023-05-14T12:00:51.595Z,1.00
2023-05-14T12:01:53.222Z,1.00
2023-05-14T12:02:54.983Z,99.90
2023-05-14T12:03:56.828Z,1.00
2023-05-14T12:05:00.945Z,1.00
2023-05-14T12:06:07.133Z,1.00
2023-05-14T12:07:14.525Z,1.00
2023-05-14T12:08:42.561Z,1.00
2023-05-14T12:09:49.655Z,99.90
2023-05-14T12:10:53.104Z,99.90
2023-05-14T12:11:54.662Z,99.90
2023-05-14T12:12:56.211Z,99.90
2023-05-14T12:14:01.669Z,1.00
2023-05-14T12:15:11.332Z,99.90
2023-05-14T12:16:13.041Z,1.00
2023-05-14T12:17:19.449Z,99.90
2023-05-14T12:18:25.077Z,99.90
2023-05-14T12:19:26.924Z,1.00
2023-05-14T12:20:29.686Z,1.00
2023-05-14T12:21:31.935Z,1.00
2023-05-14T12:22:36.897Z,1.00
2023-05-14T12:23:39.522Z,1.00
2023-05-14T12:24:42.656Z,1.00
2023-05-14T12:25:51.253Z,1.00
2023-05-14T12:26:54.777Z,1.00
2023-05-14T12:27:56.317Z,1.00
2023-05-14T12:29:02.420Z,1.00
2023-05-14T12:30:20.699Z,1.00
2023-05-14T12:31:37.084Z,1.00
2023-05-14T12:32:41.134Z,99.90
2023-05-14T12:33:42.827Z,99.90
2023-05-14T12:34:44.366Z,99.90
2023-05-14T12:35:46.889Z,99.90
2023-05-14T12:36:48.537Z,99.90
2023-05-14T12:37:50.063Z,99.90
2023-05-14T12:38:59.595Z,99.90
2023-05-14T12:40:01.162Z,99.90
2023-05-14T12:41:02.720Z,99.90
2023-05-14T12:42:04.319Z,99.90
2023-05-14T12:43:06.176Z,99.90
2023-05-14T12:44:07.706Z,99.90
2023-05-14T12:45:09.612Z,99.90
2023-05-14T12:46:11.315Z,99.90
2023-05-14T12:47:13.023Z,99.90
2023-05-14T12:48:14.668Z,99.90
2023-05-14T12:49:16.208Z,99.90
2023-05-14T12:50:17.811Z,99.90
2023-05-14T12:51:19.360Z,99.90
2023-05-14T12:52:36.152Z,99.90
2023-05-14T12:53:39.950Z,99.90
2023-05-14T12:54:43.282Z,99.90
2023-05-14T12:55:44.970Z,99.90
2023-05-14T12:56:46.639Z,99.90
2023-05-14T12:57:48.312Z,99.90
2023-05-14T12:58:49.900Z,99.90
2023-05-14T12:59:51.458Z,99.90
2023-05-14T13:00:53.119Z,99.90
2023-05-14T13:01:54.722Z,99.90
2023-05-14T13:02:56.326Z,99.90
2023-05-14T13:03:59.435Z,99.90
2023-05-14T13:05:02.726Z,99.90
2023-05-14T13:06:04.356Z,99.90
2023-05-14T13:07:06.088Z,99.90
2023-05-14T13:08:07.796Z,99.90
2023-05-14T13:09:09.441Z,99.90
2023-05-14T13:10:11.469Z,99.90
2023-05-14T13:11:13.320Z,1.00
2023-05-14T13:12:14.973Z,1.00
2023-05-14T13:13:16.856Z,1.00
2023-05-14T13:14:20.109Z,1.00
2023-05-14T13:15:22.669Z,1.00
2023-05-14T13:16:25.747Z,99.90
2023-05-14T13:17:27.446Z,99.90
2023-05-14T13:18:29.190Z,99.90
2023-05-14T13:19:30.787Z,99.90
2023-05-14T13:20:33.560Z,99.90
2023-05-14T13:21:35.366Z,99.90
2023-05-14T13:22:36.899Z,1.00
2023-05-14T13:23:38.906Z,1.00
2023-05-14T13:24:40.433Z,99.90
2023-05-14T13:25:42.109Z,99.90
2023-05-14T13:26:44.901Z,99.90
2023-05-14T13:27:46.465Z,1.00
2023-05-14T13:28:48.032Z,1.00
2023-05-14T13:29:49.624Z,1.00
2023-05-14T13:31:11.259Z,99.90
2023-05-14T13:32:12.928Z,1.00
2023-05-14T13:33:14.545Z,19.60
2023-05-14T13:34:16.357Z,99.90
2023-05-14T13:35:18.051Z,99.90
2023-05-14T13:36:19.831Z,99.90
2023-05-14T13:37:21.571Z,99.90
2023-05-14T13:38:23.149Z,10.30
2023-05-14T13:39:27.076Z,96.20
2023-05-14T13:40:28.797Z,1.00
2023-05-14T13:41:32.357Z,99.90
2023-05-14T13:42:34.727Z,99.90
2023-05-14T13:43:36.282Z,99.90
2023-05-14T13:44:37.872Z,1.00
2023-05-14T13:45:39.434Z,1.00
2023-05-14T13:46:41.143Z,1.00
2023-05-14T13:47:42.801Z,1.00
2023-05-14T13:48:44.350Z,1.00
2023-05-14T13:49:45.915Z,1.00
2023-05-14T13:50:47.489Z,1.00
2023-05-14T13:51:49.080Z,1.00
2023-05-14T13:52:50.863Z,1.00
2023-05-14T13:54:53.888Z,1.00
2023-05-14T13:56:00.157Z,71.10
2023-05-14T13:57:01.721Z,68.50
2023-05-14T13:58:03.626Z,1.00
2023-05-14T13:59:05.843Z,1.00
2023-05-14T14:00:08.062Z,3.40
2023-05-14T14:01:09.716Z,1.00